Time;durP1;ratioP1;P1;durP2;ratioP2;P2;SDS_P1;SDS_P2;PMS_P1;PMS_P2;Temp;Humidity;BMP_temperature;BMP_pressure;BME280_temperature;BME280_humidity;BME280_pressure;Samples;Min_cycle;Max_cycle;Signal;HPM_P1;HPM_P2
2023/09/12 00:00:45;;;;;;;10.95;8.43;;;;;;;;;;5072716;28;20198;-44
2023/09/12 00:03:11;;;;;;;9.02;7.72;;;21.60;99.90;;;;;;5073295;28;20551;-44
2023/09/12 00:05:37;;;;;;;9.95;8.27;;;21.60;99.90;;;;;;5073087;28;20169;-44
2023/09/12 00:08:03;;;;;;;12.98;7.85;;;;;;;;;;5072840;28;20202;-44
2023/09/12 00:10:29;;;;;;;8.77;7.63;;;21.70;99.90;;;;;;5073835;28;20177;-44
2023/09/12 00:12:55;;;;;;;10.80;7.90;;;21.60;99.90;;;;;;5073070;28;20639;-45
2023/09/12 00:15:21;;;;;;;11.40;8.10;;;21.60;99.90;;;;;;5073083;28;20231;-44
2023/09/12 00:17:48;;;;;;;11.00;9.05;;;21.60;99.90;;;;;;5072882;28;20694;-44
2023/09/12 00:20:14;;;;;;;11.73;8.80;;;21.60;99.90;;;;;;5072633;28;20186;-44
2023/09/12 00:22:39;;;;;;;13.27;9.45;;;21.60;99.90;;;;;;5072868;28;20201;-44
2023/09/12 00:25:06;;;;;;;12.60;10.55;;;21.40;99.90;;;;;;5072924;28;20166;-44
2023/09/12 00:27:32;;;;;;;16.48;10.98;;;21.50;99.90;;;;;;5073285;28;20229;-44
2023/09/12 00:29:57;;;;;;;18.17;11.45;;;21.50;99.90;;;;;;5073139;28;20189;-44
2023/09/12 00:32:23;;;;;;;14.63;9.90;;;21.40;99.90;;;;;;5072712;28;20185;-44
2023/09/12 00:34:48;;;;;;;14.85;11.10;;;21.40;99.90;;;;;;5072773;28;20170;-44
2023/09/12 00:37:14;;;;;;;15.40;11.77;;;21.40;99.90;;;;;;5071384;28;20228;-45
2023/09/12 00:39:39;;;;;;;16.58;11.23;;;21.40;99.90;;;;;;5072486;28;20166;-44
2023/09/12 00:42:07;;;;;;;18.45;11.05;;;21.40;99.90;;;;;;5072712;28;20227;-45
2023/09/12 00:44:33;;;;;;;13.30;10.75;;;;;;;;;;5072278;28;20218;-44
2023/09/12 00:47:00;;;;;;;14.73;11.57;;;21.30;99.90;;;;;;5072772;28;20205;-45
2023/09/12 00:49:27;;;;;;;14.35;11.23;;;21.40;99.90;;;;;;5072386;28;20154;-44
2023/09/12 00:51:54;;;;;;;14.52;12.43;;;21.30;99.90;;;;;;5072044;28;20162;-44
2023/09/12 00:54:19;;;;;;;13.68;11.80;;;21.20;99.90;;;;;;5072073;28;20169;-44
2023/09/12 00:56:45;;;;;;;13.90;12.45;;;21.20;99.90;;;;;;5070931;28;20174;-44
2023/09/12 00:59:12;;;;;;;17.25;12.88;;;21.20;99.90;;;;;;5072300;28;20170;-44
2023/09/12 01:01:37;;;;;;;15.70;12.60;;;21.20;99.90;;;;;;5072205;28;20169;-45
2023/09/12 01:04:03;;;;;;;16.48;12.38;;;21.20;99.90;;;;;;5072025;28;20530;-45
2023/09/12 01:06:31;;;;;;;16.13;11.70;;;21.20;99.90;;;;;;5072473;28;20194;-44
2023/09/12 01:08:57;;;;;;;16.08;12.95;;;21.20;99.90;;;;;;5072061;28;20174;-44
2023/09/12 01:11:23;;;;;;;19.05;12.90;;;21.20;99.90;;;;;;5071847;28;20173;-44
2023/09/12 01:13:49;;;;;;;15.98;13.48;;;21.10;99.90;;;;;;5071895;28;20164;-44
2023/09/12 01:16:15;;;;;;;15.00;11.68;;;21.00;99.90;;;;;;5071835;28;20170;-44
2023/09/12 01:18:42;;;;;;;16.55;12.77;;;21.00;99.90;;;;;;5071838;28;20201;-44
2023/09/12 01:21:45;;;;;;;16.85;13.23;;;21.00;99.90;;;;;;5071859;28;20204;-44
2023/09/12 01:24:32;;;;;;;17.20;13.38;;;21.00;99.90;;;;;;5071820;28;20244;-44
2023/09/12 01:27:27;;;;;;;21.23;12.38;;;21.00;99.90;;;;;;5071671;28;20668;-44
2023/09/12 01:30:01;;;;;;;18.77;12.50;;;21.00;99.90;;;;;;5071949;28;20178;-44
2023/09/12 01:32:27;;;;;;;17.17;12.15;;;21.00;99.90;;;;;;5071688;28;20206;-44
2023/09/12 01:34:53;;;;;;;15.63;12.43;;;21.00;99.90;;;;;;5071598;28;20166;-44
2023/09/12 01:37:18;;;;;;;15.88;12.77;;;21.00;99.90;;;;;;5071595;28;20169;-45
2023/09/12 01:39:44;;;;;;;15.43;12.63;;;21.10;99.90;;;;;;5071518;28;20166;-44
2023/09/12 01:42:16;;;;;;;19.50;13.32;;;21.00;99.90;;;;;;5071551;28;20163;-44
2023/09/12 01:44:44;;;;;;;17.40;13.40;;;21.10;99.90;;;;;;5071345;28;20237;-45
2023/09/12 01:47:12;;;;;;;17.67;13.48;;;21.00;99.90;;;;;;5071384;28;20204;-44
2023/09/12 01:49:40;;;;;;;20.95;13.20;;;21.10;99.90;;;;;;5071411;28;20173;-44
2023/09/12 01:52:07;;;;;;;16.80;12.80;;;21.00;99.90;;;;;;5071429;28;20166;-45
2023/09/12 01:54:34;;;;;;;17.67;13.68;;;21.10;99.90;;;;;;5071796;28;20196;-44
2023/09/12 01:57:01;;;;;;;19.20;14.35;;;21.10;99.90;;;;;;5071801;28;20573;-44
2023/09/12 01:59:28;;;;;;;21.40;14.57;;;21.00;99.90;;;;;;5071378;28;20191;-44
2023/09/12 02:01:53;;;;;;;17.75;14.15;;;21.00;99.90;;;;;;5071371;28;20167;-44
2023/09/12 02:04:19;;;;;;;19.45;15.27;;;;;;;;;;5070528;28;20174;-44
2023/09/12 02:06:45;;;;;;;19.27;16.25;;;21.00;99.90;;;;;;5071140;28;20208;-44
2023/09/12 02:09:10;;;;;;;24.55;16.30;;;20.90;99.90;;;;;;5071490;28;20182;-45
2023/09/12 02:11:36;;;;;;;22.48;16.55;;;20.90;99.90;;;;;;5071214;28;20234;-44
2023/09/12 02:14:02;;;;;;;26.40;18.48;;;20.90;99.90;;;;;;5071655;28;20224;-44
2023/09/12 02:16:29;;;;;;;24.38;16.45;;;20.90;99.90;;;;;;5071855;28;20169;-44
2023/09/12 02:18:54;;;;;;;26.88;17.65;;;20.90;99.90;;;;;;5071134;28;20635;-44
2023/09/12 02:21:20;;;;;;;22.75;17.65;;;20.90;99.90;;;;;;5071156;28;20170;-44
2023/09/12 02:23:45;;;;;;;23.30;16.98;;;20.90;99.90;;;;;;5072967;28;20567;-44
2023/09/12 02:26:11;;;;;;;25.42;18.17;;;20.90;99.90;;;;;;5075098;28;20577;-44
2023/09/12 02:28:36;;;;;;;20.35;17.67;;;20.90;99.90;;;;;;5075400;28;20627;-44
2023/09/12 02:31:02;;;;;;;22.10;17.20;;;21.00;99.90;;;;;;5075743;28;20173;-44
2023/09/12 02:33:27;;;;;;;24.05;17.50;;;21.00;99.90;;;;;;5075489;28;20189;-44
2023/09/12 02:35:53;;;;;;;24.38;17.98;;;20.90;99.90;;;;;;5074943;28;20531;-44
2023/09/12 02:38:19;;;;;;;24.58;18.45;;;20.90;99.90;;;;;;5074953;28;20669;-44
2023/09/12 02:40:44;;;;;;;24.10;18.55;;;20.80;99.90;;;;;;5074832;28;20256;-44
2023/09/12 02:43:10;;;;;;;21.55;17.50;;;20.90;99.90;;;;;;5074865;28;20688;-44
2023/09/12 02:45:35;;;;;;;26.30;18.95;;;20.90;99.90;;;;;;5074681;28;20709;-44
2023/09/12 02:48:01;;;;;;;23.90;18.00;;;20.80;99.90;;;;;;5075008;28;20259;-44
2023/09/12 02:50:26;;;;;;;23.35;18.98;;;20.80;99.90;;;;;;5074753;28;20184;-44
2023/09/12 02:52:52;;;;;;;25.45;18.65;;;20.90;99.90;;;;;;5074592;28;20166;-44
2023/09/12 02:55:17;;;;;;;25.95;19.20;;;20.90;99.90;;;;;;5073345;28;20176;-45
2023/09/12 02:57:43;;;;;;;25.60;19.85;;;20.80;99.90;;;;;;5074505;28;20530;-44
2023/09/12 03:00:09;;;;;;;23.67;18.30;;;20.80;99.90;;;;;;5074496;28;20173;-44
2023/09/12 03:02:35;;;;;;;22.77;18.33;;;20.80;99.90;;;;;;5074476;28;20511;-44
2023/09/12 03:05:03;;;;;;;24.95;19.70;;;20.70;99.90;;;;;;5074793;28;20192;-44
2023/09/12 03:07:30;;;;;;;27.83;18.95;;;20.70;99.90;;;;;;5074739;28;20338;-44
2023/09/12 03:09:55;;;;;;;26.15;19.73;;;20.80;99.90;;;;;;5074397;28;20221;-44
2023/09/12 03:12:21;;;;;;;27.48;20.42;;;20.80;99.90;;;;;;5074432;28;20262;-45
2023/09/12 03:14:46;;;;;;;25.25;19.23;;;20.80;99.90;;;;;;5074276;28;20669;-44
2023/09/12 03:17:12;;;;;;;26.50;18.33;;;20.70;99.90;;;;;;5074172;28;20537;-44
2023/09/12 03:19:38;;;;;;;30.85;19.98;;;20.80;99.90;;;;;;5074120;28;20198;-44
2023/09/12 03:22:04;;;;;;;27.17;20.48;;;20.80;99.90;;;;;;5073969;28;20181;-44
2023/09/12 03:24:29;;;;;;;24.38;19.40;;;20.80;99.90;;;;;;5074533;28;20177;-44
2023/09/12 03:26:55;;;;;;;24.40;20.75;;;20.90;99.90;;;;;;5073915;28;20201;-45
2023/09/12 03:29:20;;;;;;;28.65;20.77;;;20.80;99.90;;;;;;5073933;28;20567;-46
2023/09/12 03:31:46;;;;;;;28.80;20.08;;;20.90;99.90;;;;;;5073892;28;20162;-44
2023/09/12 03:34:11;;;;;;;26.52;19.17;;;20.90;99.90;;;;;;5073169;28;20166;-44
2023/09/12 03:36:37;;;;;;;24.80;17.77;;;20.90;99.90;;;;;;5073227;28;20166;-44
2023/09/12 03:39:05;;;;;;;23.73;18.73;;;20.80;99.90;;;;;;5073663;28;20244;-44
2023/09/12 03:41:30;;;;;;;26.92;19.67;;;20.60;99.90;;;;;;5074132;28;20185;-44
2023/09/12 03:43:56;;;;;;;29.83;20.58;;;20.70;99.90;;;;;;5073628;28;20162;-44
2023/09/12 03:46:22;;;;;;;26.58;20.73;;;20.70;99.90;;;;;;5073441;28;20308;-45
2023/09/12 03:48:48;;;;;;;27.33;20.25;;;20.80;99.90;;;;;;5073876;28;20170;-47
2023/09/12 03:51:14;;;;;;;27.45;20.08;;;20.80;99.90;;;;;;5073864;28;20170;-44
2023/09/12 03:53:40;;;;;;;30.15;20.50;;;20.80;99.90;;;;;;5073513;28;20691;-44
2023/09/12 03:56:06;;;;;;;27.70;20.98;;;20.80;99.90;;;;;;5073584;28;20212;-44
2023/09/12 03:58:31;;;;;;;32.30;20.38;;;20.80;99.90;;;;;;5074098;28;20207;-44
2023/09/12 04:00:57;;;;;;;27.77;20.23;;;20.80;99.90;;;;;;5073758;28;20205;-44
2023/09/12 04:03:22;;;;;;;26.73;20.58;;;20.80;99.90;;;;;;5073250;28;20174;-45
2023/09/12 04:05:49;;;;;;;28.65;20.92;;;20.70;99.90;;;;;;5073182;28;20166;-44
2023/09/12 04:08:15;;;;;;;26.20;20.10;;;20.60;99.90;;;;;;5073143;28;20204;-44
2023/09/12 04:10:41;;;;;;;28.52;20.90;;;20.60;99.90;;;;;;5073109;28;20170;-43
2023/09/12 04:13:06;;;;;;;26.52;19.67;;;20.60;99.90;;;;;;5073092;28;20174;-44
2023/09/12 04:15:33;;;;;;;24.90;20.27;;;;;;;;;;5073265;28;20228;-45
2023/09/12 04:17:58;;;;;;;23.33;19.25;;;20.60;99.90;;;;;;5073388;28;20177;-44
2023/09/12 04:20:24;;;;;;;24.50;19.10;;;;;;;;;;5072991;28;20170;-44
2023/09/12 04:22:50;;;;;;;24.88;20.08;;;20.70;99.90;;;;;;5072954;28;20659;-44
2023/09/12 04:25:16;;;;;;;29.75;20.73;;;20.70;99.90;;;;;;5072927;28;20623;-44
2023/09/12 04:27:41;;;;;;;32.15;20.58;;;20.70;99.90;;;;;;5072746;28;20205;-44
2023/09/12 04:30:08;;;;;;;25.92;19.77;;;20.70;99.90;;;;;;5072739;28;20160;-44
2023/09/12 04:32:34;;;;;;;25.88;19.77;;;20.70;99.90;;;;;;5072787;28;20243;-44
2023/09/12 04:35:00;;;;;;;26.92;19.92;;;20.70;99.90;;;;;;5073056;28;20642;-44
2023/09/12 04:37:25;;;;;;;27.60;21.08;;;20.70;99.90;;;;;;5072613;28;20162;-45
2023/09/12 04:39:51;;;;;;;29.70;21.20;;;20.80;99.90;;;;;;5072497;28;20578;-44
2023/09/12 04:42:17;;;;;;;32.58;21.30;;;20.80;99.90;;;;;;5072673;28;20166;-44
2023/09/12 04:44:43;;;;;;;32.90;21.73;;;20.70;99.90;;;;;;5072263;28;20214;-44
2023/09/12 04:47:09;;;;;;;26.42;19.60;;;20.60;99.90;;;;;;5071979;28;20535;-44
2023/09/12 04:49:35;;;;;;;37.20;22.33;;;20.50;99.90;;;;;;5072271;28;20662;-44
2023/09/12 04:52:00;;;;;;;30.67;22.00;;;20.50;99.90;;;;;;5072714;28;20198;-44
2023/09/12 04:54:26;;;;;;;27.58;21.73;;;20.40;99.90;;;;;;5072252;28;20174;-44
2023/09/12 04:56:51;;;;;;;32.78;22.27;;;20.40;99.90;;;;;;5072295;28;20223;-47
2023/09/12 04:59:17;;;;;;;28.90;21.50;;;20.40;99.90;;;;;;5072171;28;20170;-47
2023/09/12 05:01:43;;;;;;;32.17;22.42;;;20.40;99.90;;;;;;5072207;28;20244;-45
2023/09/12 05:04:09;;;;;;;30.90;21.35;;;20.30;99.90;;;;;;5072505;28;20197;-44
2023/09/12 05:06:35;;;;;;;30.73;22.05;;;20.30;99.90;;;;;;5072219;28;20172;-46
2023/09/12 05:09:00;;;;;;;35.35;24.00;;;20.30;99.90;;;;;;5072451;28;20162;-45
2023/09/12 05:11:26;;;;;;;32.35;22.80;;;20.20;99.90;;;;;;5072575;28;20522;-45
2023/09/12 05:13:52;;;;;;;29.23;23.88;;;20.20;99.90;;;;;;5071958;28;20205;-45
2023/09/12 05:16:17;;;;;;;36.78;23.75;;;20.20;99.90;;;;;;5072147;28;20177;-44
2023/09/12 05:18:43;;;;;;;33.83;22.52;;;20.20;99.90;;;;;;5071863;28;20185;-45
2023/09/12 05:21:09;;;;;;;29.90;23.13;;;20.20;99.90;;;;;;5072075;28;20170;-46
2023/09/12 05:23:34;;;;;;;33.67;23.13;;;20.20;99.90;;;;;;5071790;28;20631;-45
2023/09/12 05:26:00;;;;;;;36.08;24.52;;;20.10;99.90;;;;;;5072254;28;20507;-44
2023/09/12 05:28:26;;;;;;;40.50;24.88;;;20.10;99.90;;;;;;5071582;28;20209;-46
2023/09/12 05:30:52;;;;;;;30.50;23.42;;;20.10;99.90;;;;;;5071607;28;20162;-48
2023/09/12 05:33:19;;;;;;;36.05;25.02;;;;;;;;;;5071581;28;20170;-45
2023/09/12 05:35:44;;;;;;;32.50;23.48;;;20.20;99.90;;;;;;5071896;28;20253;-44
2023/09/12 05:38:10;;;;;;;30.75;23.48;;;20.20;99.90;;;;;;5071601;28;20206;-46
2023/09/12 05:40:36;;;;;;;34.30;23.40;;;20.10;99.90;;;;;;5071590;28;20170;-46
2023/09/12 05:43:02;;;;;;;36.17;25.77;;;20.20;99.90;;;;;;5071528;28;20164;-46
2023/09/12 05:45:30;;;;;;;36.28;24.38;;;20.30;99.90;;;;;;5071826;28;20237;-45
2023/09/12 05:47:56;;;;;;;34.08;27.17;;;;;;;;;;5071568;28;20296;-47
2023/09/12 05:50:23;;;;;;;36.67;27.10;;;20.40;99.90;;;;;;5071441;28;20201;-46
2023/09/12 05:52:48;;;;;;;36.25;26.23;;;20.50;99.90;;;;;;5071363;28;20636;-47
2023/09/12 05:55:14;;;;;;;37.95;27.88;;;20.60;99.90;;;;;;5071389;28;20236;-46
2023/09/12 05:57:39;;;;;;;37.08;25.45;;;20.60;99.90;;;;;;5070903;28;20204;-46
2023/09/12 06:00:05;;;;;;;34.90;26.10;;;20.70;99.90;;;;;;5071229;28;20162;-46
2023/09/12 06:02:33;;;;;;;36.78;26.55;;;;;;;;;;5071749;28;20252;-46
2023/09/12 06:04:59;;;;;;;28.10;22.23;;;20.60;99.90;;;;;;5071916;28;20520;-44
2023/09/12 06:07:25;;;;;;;30.88;22.58;;;20.60;99.90;;;;;;5071192;28;20209;-45
2023/09/12 06:09:50;;;;;;;25.77;20.83;;;20.60;99.90;;;;;;5071520;28;20170;-44
2023/09/12 06:12:16;;;;;;;30.45;20.48;;;20.70;99.90;;;;;;5071169;28;20166;-45
2023/09/12 06:14:41;;;;;;;25.92;21.85;;;20.90;99.90;;;;;;5071418;28;20170;-46
2023/09/12 06:17:07;;;;;;;26.42;21.45;;;21.00;99.90;;;;;;5071290;28;20177;-46
2023/09/12 06:19:32;;;;;;;25.67;20.63;;;21.10;99.90;;;;;;5071141;28;20170;-47
2023/09/12 06:21:58;;;;;;;23.23;17.90;;;21.10;99.90;;;;;;5071431;28;20173;-45
2023/09/12 06:24:24;;;;;;;22.05;15.65;;;21.10;99.90;;;;;;5071342;28;20204;-45
2023/09/12 06:26:49;;;;;;;24.40;16.85;;;21.20;99.90;;;;;;5070926;28;20198;-45
2023/09/12 06:29:15;;;;;;;19.17;15.73;;;21.20;99.90;;;;;;5070954;28;20177;-44
2023/09/12 06:31:41;;;;;;;19.75;15.38;;;21.30;99.90;;;;;;5070992;28;20178;-46
2023/09/12 06:34:07;;;;;;;17.65;14.88;;;21.20;99.90;;;;;;5071033;28;20173;-45
2023/09/12 06:36:33;;;;;;;16.17;14.48;;;21.10;99.90;;;;;;5071089;28;20535;-46
2023/09/12 06:38:59;;;;;;;17.92;14.40;;;21.20;99.90;;;;;;5071541;28;20201;-47
2023/09/12 06:41:26;;;;;;;17.73;14.98;;;21.30;99.90;;;;;;5070921;28;20231;-46
2023/09/12 06:43:51;;;;;;;16.80;14.68;;;21.40;99.90;;;;;;5070882;28;20166;-46
2023/09/12 06:46:17;;;;;;;14.77;12.82;;;21.40;99.90;;;;;;5070728;28;20221;-47
2023/09/12 06:48:44;;;;;;;14.25;12.80;;;21.40;99.90;;;;;;5070903;28;20205;-45
2023/09/12 06:51:10;;;;;;;15.07;11.88;;;21.50;99.90;;;;;;5071175;28;20173;-46
2023/09/12 06:53:39;;;;;;;15.32;11.63;;;;;;;;;;5070821;28;20170;-44
2023/09/12 06:56:05;;;;;;;13.73;11.25;;;21.60;99.90;;;;;;5070748;28;20162;-46
2023/09/12 06:58:31;;;;;;;15.30;10.98;;;21.70;99.90;;;;;;5071196;28;20537;-45
2023/09/12 07:01:08;;;;;;;12.43;11.23;;;21.70;99.90;;;;;;5071310;28;20173;-45
2023/09/12 07:03:34;;;;;;;11.18;10.05;;;21.80;99.90;;;;;;5070734;28;20166;-47
2023/09/12 07:06:00;;;;;;;11.35;10.35;;;21.90;99.90;;;;;;5071156;28;20663;-45
2023/09/12 07:08:26;;;;;;;9.95;8.82;;;22.00;99.90;;;;;;5070473;28;20201;-46
2023/09/12 07:10:54;;;;;;;9.93;8.93;;;;;;;;;;5074021;28;20168;-46
2023/09/12 07:13:21;;;;;;;10.15;9.10;;;22.30;99.90;;;;;;5074325;28;20194;-47
2023/09/12 07:15:47;;;;;;;10.18;8.73;;;22.20;99.90;;;;;;5074274;28;20166;-44
2023/09/12 07:18:14;;;;;;;8.82;6.60;;;22.20;99.90;;;;;;5074166;28;20162;-45
2023/09/12 07:20:40;;;;;;;7.20;6.50;;;22.20;99.90;;;;;;5074232;28;20170;-47
2023/09/12 07:23:06;;;;;;;7.88;7.13;;;22.40;99.90;;;;;;5074343;28;20197;-47
2023/09/12 07:25:40;;;;;;;6.65;6.05;;;22.50;99.90;;;;;;5074009;28;20281;-44
2023/09/12 07:28:06;;;;;;;6.90;6.30;;;22.80;99.90;;;;;;5074113;28;20213;-44
2023/09/12 07:30:32;;;;;;;7.85;6.18;;;22.90;99.90;;;;;;5073991;28;20166;-45
2023/09/12 07:32:57;;;;;;;6.40;5.78;;;23.00;99.90;;;;;;5074243;28;20508;-45
2023/09/12 07:35:23;;;;;;;7.97;5.63;;;23.00;99.90;;;;;;5073900;28;20623;-46
2023/09/12 07:37:50;;;;;;;11.32;5.32;;;22.90;99.90;;;;;;5074092;28;20185;-45
2023/09/12 07:40:15;;;;;;;5.47;4.97;;;22.80;99.90;;;;;;5073812;28;20173;-46
2023/09/12 07:42:41;;;;;;;6.90;5.60;;;22.90;99.90;;;;;;5074052;28;20174;-47
2023/09/12 07:45:07;;;;;;;7.13;5.47;;;23.10;99.90;;;;;;5073649;28;20209;-47
2023/09/12 07:47:33;;;;;;;5.35;4.43;;;23.30;99.90;;;;;;5073596;28;20351;-47
2023/09/12 07:50:00;;;;;;;6.85;4.47;;;23.40;99.90;;;;;;5074054;28;20631;-45
2023/09/12 07:52:26;;;;;;;4.75;3.35;;;23.50;99.90;;;;;;5073848;28;20174;-45
2023/09/12 07:54:56;;;;;;;4.57;4.00;;;23.60;99.90;;;;;;5073448;28;20190;-45
2023/09/12 07:57:22;;;;;;;10.25;3.67;;;23.70;99.90;;;;;;5073403;28;20157;-46
2023/09/12 07:59:48;;;;;;;7.53;4.25;;;23.60;99.90;;;;;;5073355;28;20201;-45
2023/09/12 08:02:14;;;;;;;4.97;4.40;;;23.80;99.90;;;;;;5073369;28;20197;-46
2023/09/12 08:04:39;;;;;;;5.72;3.95;;;23.90;99.90;;;;;;5073584;28;20173;-46
2023/09/12 08:07:05;;;;;;;5.20;4.43;;;23.90;99.90;;;;;;5073414;28;20564;-47
2023/09/12 08:09:52;;;;;;;5.05;4.05;;;23.90;99.90;;;;;;5073724;28;20600;-46
2023/09/12 08:12:18;;;;;;;5.70;3.42;;;24.00;99.90;;;;;;5073261;28;20623;-46
2023/09/12 08:14:45;;;;;;;3.55;3.25;;;23.90;99.90;;;;;;5073092;28;20253;-47
2023/09/12 08:17:12;;;;;;;3.85;3.50;;;23.90;99.90;;;;;;5073013;28;20526;-45
2023/09/12 08:19:38;;;;;;;4.85;4.35;;;;;;;;;;5073313;28;20170;-46
2023/09/12 08:22:03;;;;;;;5.38;4.15;;;24.10;99.90;;;;;;5072353;28;20669;-46
2023/09/12 08:24:29;;;;;;;5.43;4.53;;;24.10;99.90;;;;;;5073346;28;20196;-47
2023/09/12 08:26:55;;;;;;;5.57;4.10;;;24.20;99.90;;;;;;5072765;28;20201;-45
2023/09/12 08:29:20;;;;;;;5.60;4.40;;;24.10;99.90;;;;;;5072858;28;20174;-47
2023/09/12 08:31:46;;;;;;;5.40;4.88;;;24.10;99.90;;;;;;5072775;28;20249;-47
2023/09/12 08:34:13;;;;;;;6.40;4.90;;;24.30;99.90;;;;;;5072662;28;20180;-45
2023/09/12 08:36:39;;;;;;;8.55;5.50;;;24.30;99.90;;;;;;5072725;28;20169;-46
2023/09/12 08:39:07;;;;;;;6.07;4.60;;;24.30;99.90;;;;;;5072648;28;20170;-45
2023/09/12 08:41:33;;;;;;;5.95;4.88;;;24.20;99.90;;;;;;5072550;28;20669;-45
2023/09/12 08:44:00;;;;;;;6.80;5.00;;;24.20;99.90;;;;;;5072942;28;20178;-46
2023/09/12 08:46:26;;;;;;;4.65;4.13;;;24.20;99.90;;;;;;5072283;28;20292;-45
2023/09/12 08:48:54;;;;;;;4.40;4.00;;;24.20;99.90;;;;;;5072418;28;20757;-45
2023/09/12 08:51:21;;;;;;;5.30;3.70;;;24.20;99.90;;;;;;5072437;28;20249;-46
2023/09/12 08:53:47;;;;;;;5.47;4.50;;;;;;;;;;5072583;28;20173;-47
2023/09/12 08:56:13;;;;;;;6.10;4.63;;;24.40;99.90;;;;;;5072295;28;20533;-46
2023/09/12 08:58:39;;;;;;;8.02;5.60;;;24.40;99.90;;;;;;5072219;28;20223;-47
2023/09/12 09:01:06;;;;;;;6.72;5.70;;;24.40;99.90;;;;;;5072445;28;20174;-46
2023/09/12 09:03:32;;;;;;;9.20;6.22;;;24.50;99.90;;;;;;5072224;28;20174;-46
2023/09/12 09:05:58;;;;;;;10.30;7.38;;;24.70;99.90;;;;;;5072584;28;20169;-45
2023/09/12 09:08:24;;;;;;;7.63;6.82;;;;;;;;;;5072045;28;20205;-46
2023/09/12 09:11:03;;;;;;;6.75;5.50;;;24.80;99.90;;;;;;5071992;28;20172;-46
2023/09/12 09:13:29;;;;;;;8.25;6.70;;;24.90;99.90;;;;;;5072711;28;20290;-46
2023/09/12 09:16:18;;;;;;;7.45;6.72;;;25.00;99.90;;;;;;5072251;28;20173;-45
2023/09/12 09:18:50;;;;;;;7.97;6.15;;;25.10;99.90;;;;;;5072071;28;20176;-46
2023/09/12 09:21:25;;;;;;;12.48;6.50;;;25.00;99.90;;;;;;5071813;28;20170;-46
2023/09/12 09:23:52;;;;;;;6.65;6.00;;;25.20;99.90;;;;;;5072121;28;20172;-45
2023/09/12 09:26:18;;;;;;;7.25;6.50;;;25.30;99.90;;;;;;5071696;28;20161;-45
2023/09/12 09:28:44;;;;;;;5.57;4.72;;;25.10;99.90;;;;;;5071605;28;20251;-45
2023/09/12 09:31:13;;;;;;;5.60;4.97;;;25.10;99.90;;;;;;5071757;28;20534;-45
2023/09/12 09:33:40;;;;;;;6.30;5.70;;;25.20;99.90;;;;;;5070484;28;20161;-45
2023/09/12 09:36:07;;;;;;;6.90;5.78;;;25.30;99.90;;;;;;5071747;28;20173;-45
2023/09/12 09:38:36;;;;;;;8.63;5.30;;;25.60;99.90;;;;;;5071585;28;20178;-46
2023/09/12 09:41:06;;;;;;;7.38;5.72;;;25.50;99.90;;;;;;5071654;28;20157;-45
2023/09/12 09:43:32;;;;;;;6.93;6.20;;;25.60;99.90;;;;;;5071390;28;20218;-46
2023/09/12 09:45:58;;;;;;;8.77;5.95;;;25.60;99.90;;;;;;5071803;28;20213;-46
2023/09/12 09:48:28;;;;;;;8.80;5.75;;;25.80;99.90;;;;;;5071586;28;20205;-46
2023/09/12 09:51:00;;;;;;;12.50;6.18;;;25.70;99.90;;;;;;5071665;28;20176;-45
2023/09/12 09:53:26;;;;;;;8.15;6.55;;;25.60;99.90;;;;;;5071890;28;20172;-45
2023/09/12 09:55:52;;;;;;;7.95;6.45;;;25.60;99.90;;;;;;5071367;28;20565;-45
2023/09/12 09:58:17;;;;;;;8.70;6.20;;;25.70;99.90;;;;;;5071322;28;20248;-56
2023/09/12 10:00:43;;;;;;;7.55;5.18;;;25.80;99.90;;;;;;5071589;28;20219;-55
2023/09/12 10:03:12;;;;;;;6.07;4.57;;;25.90;99.90;;;;;;5071349;28;20197;-66
2023/09/12 10:05:39;;;;;;;18.67;7.47;;;26.00;99.90;;;;;;5071605;28;20181;-59
2023/09/12 10:08:09;;;;;;;6.93;5.03;;;25.90;99.90;;;;;;5071218;28;20254;-57
2023/09/12 10:10:37;;;;;;;6.60;4.47;;;25.90;99.90;;;;;;5071242;28;20557;-58
2023/09/12 10:13:04;;;;;;;8.25;4.53;;;25.90;99.90;;;;;;5071178;28;20533;-57
2023/09/12 10:15:30;;;;;;;7.65;5.10;;;25.70;99.90;;;;;;5071630;28;20154;-57
2023/09/12 10:18:02;;;;;;;7.05;4.30;;;25.80;99.90;;;;;;5071571;28;20161;-57
2023/09/12 10:20:35;;;;;;;7.45;5.55;;;25.90;99.90;;;;;;5071882;28;20260;-58
2023/09/12 10:23:15;;;;;;;7.97;6.13;;;26.00;99.90;;;;;;5071311;28;20227;-57
2023/09/12 10:25:43;;;;;;;7.60;6.68;;;26.10;99.90;;;;;;5071178;28;20166;-58
2023/09/12 10:28:10;;;;;;;9.50;6.72;;;26.20;99.90;;;;;;5070987;28;20201;-57
2023/09/12 10:30:36;;;;;;;10.13;7.82;;;26.20;99.90;;;;;;5070873;28;20158;-57
2023/09/12 10:33:03;;;;;;;10.00;7.35;;;26.20;99.90;;;;;;5071009;28;20166;-57
2023/09/12 10:35:31;;;;;;;10.90;7.95;;;26.20;99.90;;;;;;5071334;28;20226;-57
2023/09/12 10:38:03;;;;;;;6.53;5.82;;;30.40;99.90;;;;;;5071411;28;20677;-57
2023/09/12 10:40:30;;;;;;;7.97;7.07;;;26.30;99.90;;;;;;5071587;28;20219;-57
2023/09/12 10:42:57;;;;;;;8.80;7.25;;;26.50;99.90;;;;;;5071291;28;20157;-57
2023/09/12 10:45:23;;;;;;;9.05;7.38;;;26.70;99.90;;;;;;5073558;28;20220;-58
2023/09/12 10:47:49;;;;;;;6.50;5.80;;;26.70;99.90;;;;;;5074762;28;20200;-57
2023/09/12 10:50:15;;;;;;;10.95;8.73;;;;;;;;;;5074745;28;20534;-57
2023/09/12 10:52:41;;;;;;;17.15;8.70;;;26.80;99.90;;;;;;5074710;28;20170;-57
2023/09/12 10:55:07;;;;;;;11.63;7.25;;;26.50;99.90;;;;;;5074541;28;20176;-57
2023/09/12 10:57:34;;;;;;;9.90;8.65;;;26.80;99.90;;;;;;5074557;28;20177;-57
2023/09/12 11:00:04;;;;;;;15.02;10.15;;;26.90;99.90;;;;;;5074897;28;20193;-57
2023/09/12 11:02:36;;;;;;;16.52;9.93;;;27.00;99.90;;;;;;5074994;28;20542;-57
2023/09/12 11:05:07;;;;;;;13.57;10.35;;;26.60;99.90;;;;;;5074318;28;20169;-58
2023/09/12 11:07:44;;;;;;;10.45;9.35;;;26.70;99.90;;;;;;5074288;28;20666;-57
2023/09/12 11:10:14;;;;;;;10.50;9.38;;;26.70;99.90;;;;;;5074313;28;20623;-57
2023/09/12 11:12:40;;;;;;;12.20;9.88;;;;;;;;;;5074458;28;20238;-57
2023/09/12 11:15:08;;;;;;;13.85;10.55;;;26.80;99.90;;;;;;5074225;28;20166;-57
2023/09/12 11:17:41;;;;;;;13.32;9.88;;;26.90;99.90;;;;;;5074397;28;20173;-57
2023/09/12 11:20:10;;;;;;;12.90;8.70;;;26.80;99.90;;;;;;5074069;28;20215;-57
2023/09/12 11:22:45;;;;;;;8.68;7.80;;;27.00;99.90;;;;;;5074036;28;20169;-58
2023/09/12 11:25:22;;;;;;;10.35;8.30;;;27.20;99.90;;;;;;5074280;28;20197;-57
2023/09/12 11:27:51;;;;;;;9.98;7.55;;;27.10;99.90;;;;;;5074123;28;20204;-57
2023/09/12 11:30:18;;;;;;;10.95;7.72;;;27.10;99.90;;;;;;5074280;28;20165;-60
2023/09/12 11:32:50;;;;;;;8.52;7.68;;;27.10;99.90;;;;;;5073841;28;20635;-60
2023/09/12 11:35:16;;;;;;;8.82;7.72;;;;;;;;;;5073847;28;20634;-60
2023/09/12 11:37:55;;;;;;;9.05;7.80;;;27.00;99.90;;;;;;5073941;28;20174;-60
2023/09/12 11:40:26;;;;;;;10.77;7.95;;;27.20;99.90;;;;;;5073865;28;20165;-60
2023/09/12 11:42:52;;;;;;;8.98;7.85;;;27.50;99.90;;;;;;5073958;28;20268;-60
2023/09/12 11:45:20;;;;;;;9.98;8.38;;;27.10;99.90;;;;;;5073681;28;20296;-60
2023/09/12 11:47:47;;;;;;;10.35;8.10;;;27.20;99.90;;;;;;5073745;28;20304;-57
2023/09/12 11:50:33;;;;;;;10.35;9.15;;;27.20;99.90;;;;;;5074136;28;20177;-58
2023/09/12 11:53:09;;;;;;;10.45;9.32;;;27.10;99.90;;;;;;5074350;28;20222;-58
2023/09/12 11:55:37;;;;;;;9.30;8.25;;;27.40;99.90;;;;;;5072547;28;20164;-57
2023/09/12 11:58:03;;;;;;;9.32;8.35;;;27.50;99.90;;;;;;5073622;28;20173;-57
2023/09/12 12:00:29;;;;;;;11.30;8.85;;;27.50;99.90;;;;;;5073796;28;20170;-57
2023/09/12 12:02:56;;;;;;;11.13;8.00;;;27.50;99.90;;;;;;5073849;28;20196;-57
2023/09/12 12:05:22;;;;;;;9.65;8.60;;;27.40;99.90;;;;;;5073261;28;20172;-58
2023/09/12 12:07:49;;;;;;;10.25;7.47;;;27.50;99.90;;;;;;5073150;28;20633;-57
2023/09/12 12:10:15;;;;;;;10.00;7.43;;;27.60;99.90;;;;;;5073244;28;20237;-57
2023/09/12 12:12:46;;;;;;;10.80;7.40;;;27.60;99.90;;;;;;5072389;28;20646;-57
2023/09/12 12:15:12;;;;;;;10.27;7.60;;;27.50;99.90;;;;;;5072441;28;20184;-57
2023/09/12 12:17:40;;;;;;;7.72;6.43;;;27.50;99.90;;;;;;5072511;28;20173;-57
2023/09/12 12:20:10;;;;;;;9.30;6.82;;;27.60;99.90;;;;;;5071564;28;20173;-57
2023/09/12 12:22:36;;;;;;;9.70;8.05;;;27.40;99.90;;;;;;5072496;28;20248;-57
2023/09/12 12:25:10;;;;;;;7.30;6.63;;;27.60;99.90;;;;;;5072548;28;20530;-57
2023/09/12 12:27:39;;;;;;;6.95;6.25;;;27.70;99.90;;;;;;5072294;28;20197;-57
2023/09/12 12:30:10;;;;;;;6.95;6.25;;;27.90;99.90;;;;;;5072282;28;20181;-57
2023/09/12 12:32:46;;;;;;;8.60;7.30;;;28.00;99.90;;;;;;5071890;28;20250;-57
2023/09/12 12:35:20;;;;;;;9.10;7.50;;;27.90;99.90;;;;;;5072600;28;20264;-57
2023/09/12 12:37:49;;;;;;;11.57;10.10;;;27.90;99.90;;;;;;5072616;28;20153;-57
2023/09/12 12:40:15;;;;;;;11.00;9.90;;;28.00;99.90;;;;;;5072838;28;20521;-58